KPQI/PQI METAR and TAF weather

Enter ICAO airport designator
Station Type Date Time Source
KPQI METAR 2019/06/16 19:56 UTC NOAA

KPQI 161956Z AUTO 25012G16KT 10SM FEW065 22/09 A2980 RMK AO2 SLP115 T02170089


Station Type Date Time Source
KPQI Decoded METAR 2019/06/16 19:56 UTC NOAA

Presque Isle, ME, United States (KPQI) 46-41N 068-03W 146M
Jun 16, 2019 - 03:56 PM EDT / 2019.06.16 1956 UTC
Wind: from the WSW (250 degrees) at 14 MPH (12 KT) gusting to 18 MPH (16 KT):0
Visibility: 10 mile(s):0
Sky conditions: mostly clear
Temperature: 71.1 F (21.7 C)
Dew Point: 48.0 F (8.9 C)
Relative Humidity: 43%
Pressure (altimeter): 29.8 in. Hg (1009 hPa)
ob: KPQI 161956Z AUTO 25012G16KT 10SM FEW065 22/09 A2980 RMK AO2 SLP115 T02170089
cycle: 20

Station Type Date Time Source
KPQI TAF 2019/06/16 18:22 UTC NOAA

TAF KPQI 161720Z 1618/1718 25009KT P6SM SCT050
FM162300 29005KT P6SM SCT050
FM170200 32003KT P6SM SCT050
FM170600 35004KT P6SM SCT050
FM171400 33009KT P6SM FEW250

Example: see airport list